Time;durP1;ratioP1;P1;durP2;ratioP2;P2;SDS_P1;SDS_P2;PMS_P1;PMS_P2;Temp;Humidity;BMP_temperature;BMP_pressure;BME280_temperature;BME280_humidity;BME280_pressure;Samples;Min_cycle;Max_cycle;Signal;HPM_P1;HPM_P2
2020/08/04 00:00:01;;;;;;;22.95;20.7;;;;;;;13.96;100;94510.35;;;;
2020/08/04 00:01:08;;;;;;;22.95;20.7;;;;;;;13.96;100;94510.35;;;;
2020/08/04 00:02:13;;;;;;;22.95;20.7;;;;;;;13.96;100;94510.35;;;;
2020/08/04 00:03:19;;;;;;;22.95;20.7;;;;;;;13.96;100;94510.35;;;;
2020/08/04 00:04:25;;;;;;;22.95;20.7;;;;;;;13.96;100;94510.35;;;;
2020/08/04 00:05:32;;;;;;;22.95;20.7;;;;;;;13.96;100;94510.35;;;;
2020/08/04 00:06:39;;;;;;;22.95;20.7;;;;;;;13.96;100;94510.35;;;;
2020/08/04 00:07:45;;;;;;;22.95;20.7;;;;;;;13.96;100;94510.35;;;;
2020/08/04 00:08:50;;;;;;;22.95;20.7;;;;;;;13.96;100;94510.35;;;;
2020/08/04 00:09:56;;;;;;;22.95;20.7;;;;;;;13.96;100;94510.35;;;;
2020/08/04 00:11:03;;;;;;;22.95;20.7;;;;;;;13.96;100;94510.35;;;;
2020/08/04 00:12:10;;;;;;;22.95;20.7;;;;;;;13.96;100;94510.35;;;;
2020/08/04 00:13:18;;;;;;;22.95;20.7;;;;;;;13.96;100;94510.35;;;;
2020/08/04 00:14:25;;;;;;;22.95;20.7;;;;;;;13.96;100;94510.35;;;;
2020/08/04 00:15:30;;;;;;;22.95;20.7;;;;;;;13.96;100;94510.35;;;;
2020/08/04 00:16:37;;;;;;;22.95;20.7;;;;;;;13.96;100;94510.35;;;;
2020/08/04 00:17:42;;;;;;;22.95;20.7;;;;;;;13.96;100;94510.35;;;;
2020/08/04 00:18:47;;;;;;;22.95;20.7;;;;;;;13.96;100;94510.35;;;;
2020/08/04 00:19:53;;;;;;;22.95;20.7;;;;;;;13.96;100;94510.35;;;;
2020/08/04 00:20:58;;;;;;;22.95;20.7;;;;;;;13.96;100;94510.35;;;;
2020/08/04 00:31:03;;;;;;;35.89999;31.8;;;;;;;13.67;100;94491.31;;;;
2020/08/04 00:32:09;;;;;;;35.89999;31.8;;;;;;;13.67;100;94491.31;;;;
2020/08/04 00:33:19;;;;;;;35.89999;31.8;;;;;;;13.67;100;94491.31;;;;
2020/08/04 00:34:25;;;;;;;35.89999;31.8;;;;;;;13.67;100;94491.31;;;;
2020/08/04 00:36:24;;;;;;;35.89999;31.8;;;;;;;13.67;100;94491.31;;;;
2020/08/04 00:37:30;;;;;;;35.89999;31.8;;;;;;;13.67;100;94491.31;;;;
2020/08/04 00:38:35;;;;;;;35.89999;31.8;;;;;;;13.67;100;94491.31;;;;
2020/08/04 00:39:43;;;;;;;35.89999;31.8;;;;;;;13.67;100;94491.31;;;;
2020/08/04 00:40:44;;;;;;;35.89999;31.8;;;;;;;13.67;100;94491.31;;;;
2020/08/04 00:41:50;;;;;;;41;34.09999;;;;;;;13.64;100;94502.69;;;;
2020/08/04 00:42:56;;;;;;;41;34.09999;;;;;;;13.64;100;94502.69;;;;
2020/08/04 00:43:58;;;;;;;41;34.09999;;;;;;;13.64;100;94502.69;;;;
2020/08/04 00:45:08;;;;;;;41;34.09999;;;;;;;13.64;100;94502.69;;;;
2020/08/04 00:46:15;;;;;;;41;34.09999;;;;;;;13.64;100;94502.69;;;;
2020/08/04 00:47:24;;;;;;;41;34.09999;;;;;;;13.64;100;94502.69;;;;
2020/08/04 00:48:30;;;;;;;41;34.09999;;;;;;;13.64;100;94502.69;;;;
2020/08/04 00:49:42;;;;;;;41;34.09999;;;;;;;13.64;100;94502.69;;;;
2020/08/04 00:50:46;;;;;;;41;34.09999;;;;;;;13.64;100;94502.69;;;;
2020/08/04 00:51:51;;;;;;;41;34.09999;;;;;;;13.64;100;94502.69;;;;
2020/08/04 00:52:58;;;;;;;41;34.09999;;;;;;;13.64;100;94502.69;;;;
2020/08/04 00:54:05;;;;;;;41;34.09999;;;;;;;13.64;100;94502.69;;;;
2020/08/04 00:55:11;;;;;;;41;34.09999;;;;;;;13.64;100;94502.69;;;;
2020/08/04 00:56:18;;;;;;;41;34.09999;;;;;;;13.64;100;94502.69;;;;
2020/08/04 00:57:27;;;;;;;41;34.09999;;;;;;;13.64;100;94502.69;;;;
2020/08/04 00:58:33;;;;;;;41;34.09999;;;;;;;13.64;100;94502.69;;;;
2020/08/04 00:59:36;;;;;;;41;34.09999;;;;;;;13.64;100;94502.69;;;;
2020/08/04 01:00:42;;;;;;;41;34.09999;;;;;;;13.64;100;94502.69;;;;
2020/08/04 01:01:47;;;;;;;41;34.09999;;;;;;;13.64;100;94502.69;;;;
2020/08/04 01:02:47;;;;;;;41;34.09999;;;;;;;13.64;100;94502.69;;;;
2020/08/04 01:03:53;;;;;;;41;34.09999;;;;;;;13.64;100;94502.69;;;;
2020/08/04 01:04:56;;;;;;;41;34.09999;;;;;;;13.64;100;94502.69;;;;
2020/08/04 01:05:57;;;;;;;41;34.09999;;;;;;;13.64;100;94502.69;;;;
2020/08/04 01:07:04;;;;;;;41;34.09999;;;;;;;13.64;100;94502.69;;;;
2020/08/04 01:08:11;;;;;;;41;34.09999;;;;;;;13.64;100;94502.69;;;;
2020/08/04 01:09:18;;;;;;;41;34.09999;;;;;;;13.64;100;94502.69;;;;
2020/08/04 01:10:24;;;;;;;41;34.09999;;;;;;;13.64;100;94502.69;;;;
2020/08/04 01:11:24;;;;;;;41;34.09999;;;;;;;13.64;100;94502.69;;;;
2020/08/04 01:12:32;;;;;;;41;34.09999;;;;;;;13.64;100;94502.69;;;;
2020/08/04 01:13:36;;;;;;;41;34.09999;;;;;;;13.64;100;94502.69;;;;
2020/08/04 01:14:40;;;;;;;41;34.09999;;;;;;;13.64;100;94502.69;;;;
2020/08/04 01:15:45;;;;;;;41;34.09999;;;;;;;13.64;100;94502.69;;;;
2020/08/04 01:16:50;;;;;;;41;34.09999;;;;;;;13.64;100;94502.69;;;;
2020/08/04 01:17:51;;;;;;;41;34.09999;;;;;;;13.64;100;94502.69;;;;
2020/08/04 01:18:56;;;;;;;41;34.09999;;;;;;;13.64;100;94502.69;;;;
2020/08/04 01:20:00;;;;;;;41;34.09999;;;;;;;13.64;100;94502.69;;;;
2020/08/04 01:21:03;;;;;;;41;34.09999;;;;;;;13.64;100;94502.69;;;;
2020/08/04 01:22:09;;;;;;;41;34.09999;;;;;;;13.64;100;94502.69;;;;
2020/08/04 01:23:15;;;;;;;41;34.09999;;;;;;;13.64;100;94502.69;;;;
2020/08/04 01:24:16;;;;;;;41;34.09999;;;;;;;13.64;100;94502.69;;;;
2020/08/04 01:25:24;;;;;;;40.95;35.14999;;;;;;;13.57;100;94551.79;;;;
2020/08/04 01:26:31;;;;;;;40.95;35.14999;;;;;;;13.57;100;94551.79;;;;
2020/08/04 01:27:35;;;;;;;40.95;35.14999;;;;;;;13.57;100;94551.79;;;;
2020/08/04 01:28:39;;;;;;;40.95;35.14999;;;;;;;13.57;100;94551.79;;;;
2020/08/04 01:29:44;;;;;;;40.95;35.14999;;;;;;;13.57;100;94551.79;;;;
2020/08/04 01:30:45;;;;;;;40.95;35.14999;;;;;;;13.57;100;94551.79;;;;
2020/08/04 01:31:50;;;;;;;40.95;35.14999;;;;;;;13.57;100;94551.79;;;;
2020/08/04 01:32:55;;;;;;;40.95;35.14999;;;;;;;13.57;100;94551.79;;;;
2020/08/04 01:33:57;;;;;;;40.95;35.14999;;;;;;;13.57;100;94551.79;;;;
2020/08/04 01:35:11;;;;;;;40.95;35.14999;;;;;;;13.57;100;94551.79;;;;
2020/08/04 01:36:16;;;;;;;42.35001;36;;;;;;;13.44;100;94553.85;;;;
2020/08/04 01:37:17;;;;;;;42.35001;36;;;;;;;13.44;100;94553.85;;;;
2020/08/04 01:38:22;;;;;;;42.35001;36;;;;;;;13.44;100;94553.85;;;;
2020/08/04 01:39:27;;;;;;;42.35001;36;;;;;;;13.44;100;94553.85;;;;
2020/08/04 01:40:29;;;;;;;42.35001;36;;;;;;;13.44;100;94553.85;;;;
2020/08/04 01:41:39;;;;;;;42.35001;36;;;;;;;13.44;100;94553.85;;;;
2020/08/04 01:42:47;;;;;;;42.35001;36;;;;;;;13.44;100;94553.85;;;;
2020/08/04 01:43:51;;;;;;;42.35001;36;;;;;;;13.44;100;94553.85;;;;
2020/08/04 01:44:57;;;;;;;42.35001;36;;;;;;;13.44;100;94553.85;;;;
2020/08/04 01:46:02;;;;;;;42.35001;36;;;;;;;13.44;100;94553.85;;;;
2020/08/04 01:47:08;;;;;;;42.35001;36;;;;;;;13.44;100;94553.85;;;;
2020/08/04 01:48:16;;;;;;;42.35001;36;;;;;;;13.44;100;94553.85;;;;
2020/08/04 01:49:21;;;;;;;42.35001;36;;;;;;;13.44;100;94553.85;;;;
2020/08/04 01:50:28;;;;;;;42.35001;36;;;;;;;13.44;100;94553.85;;;;
2020/08/04 01:51:31;;;;;;;42.35001;36;;;;;;;13.44;100;94553.85;;;;
2020/08/04 01:52:39;;;;;;;42.35001;36;;;;;;;13.44;100;94553.85;;;;
2020/08/04 01:53:45;;;;;;;42.35001;36;;;;;;;13.44;100;94553.85;;;;
2020/08/04 01:54:50;;;;;;;42.35001;36;;;;;;;13.44;100;94553.85;;;;
2020/08/04 01:55:51;;;;;;;42.35001;36;;;;;;;13.44;100;94553.85;;;;
2020/08/04 01:56:56;;;;;;;42.35001;36;;;;;;;13.44;100;94553.85;;;;
2020/08/04 01:58:02;;;;;;;42.35001;36;;;;;;;13.44;100;94553.85;;;;
2020/08/04 01:59:03;;;;;;;42.35001;36;;;;;;;13.44;100;94553.85;;;;
2020/08/04 02:00:09;;;;;;;42.35001;36;;;;;;;13.44;100;94553.85;;;;
2020/08/04 02:01:22;;;;;;;42.35001;36;;;;;;;13.44;100;94553.85;;;;
2020/08/04 02:02:27;;;;;;;42.35001;36;;;;;;;13.44;100;94553.85;;;;
2020/08/04 02:03:31;;;;;;;42.35001;36;;;;;;;13.44;100;94553.85;;;;
2020/08/04 02:04:32;;;;;;;42.35001;36;;;;;;;13.44;100;94553.85;;;;
2020/08/04 02:05:37;;;;;;;42.35001;36;;;;;;;13.44;100;94553.85;;;;
2020/08/04 02:06:43;;;;;;;42.35001;36;;;;;;;13.44;100;94553.85;;;;
2020/08/04 02:07:49;;;;;;;42.35001;36;;;;;;;13.44;100;94553.85;;;;
2020/08/04 02:08:53;;;;;;;42.35001;36;;;;;;;13.44;100;94553.85;;;;
2020/08/04 02:09:58;;;;;;;42.35001;36;;;;;;;13.44;100;94553.85;;;;
2020/08/04 02:11:04;;;;;;;42.35001;36;;;;;;;13.44;100;94553.85;;;;
2020/08/04 02:12:10;;;;;;;42.35001;36;;;;;;;13.44;100;94553.85;;;;
2020/08/04 02:13:16;;;;;;;42.35001;36;;;;;;;13.44;100;94553.85;;;;
2020/08/04 02:14:22;;;;;;;42.35001;36;;;;;;;13.44;100;94553.85;;;;
2020/08/04 02:15:28;;;;;;;42.35001;36;;;;;;;13.44;100;94553.85;;;;
2020/08/04 02:16:34;;;;;;;42.35001;36;;;;;;;13.44;100;94553.85;;;;
2020/08/04 02:17:39;;;;;;;42.35001;36;;;;;;;13.44;100;94553.85;;;;
2020/08/04 02:18:40;;;;;;;32.64999;28.9;;;;;;;13.33;100;94582.03;;;;
2020/08/04 02:19:45;;;;;;;32.64999;28.9;;;;;;;13.33;100;94582.03;;;;
2020/08/04 02:20:49;;;;;;;32.64999;28.9;;;;;;;13.33;100;94582.03;;;;
2020/08/04 02:21:57;;;;;;;32.64999;28.9;;;;;;;13.33;100;94582.03;;;;
2020/08/04 02:23:05;;;;;;;32.64999;28.9;;;;;;;13.33;100;94582.03;;;;
2020/08/04 02:24:10;;;;;;;32.64999;28.9;;;;;;;13.33;100;94582.03;;;;
2020/08/04 02:25:15;;;;;;;32.64999;28.9;;;;;;;13.33;100;94582.03;;;;
2020/08/04 02:26:26;;;;;;;32.64999;28.9;;;;;;;13.33;100;94582.03;;;;
2020/08/04 02:27:31;;;;;;;32.64999;28.9;;;;;;;13.33;100;94582.03;;;;
2020/08/04 02:28:35;;;;;;;32.64999;28.9;;;;;;;13.33;100;94582.03;;;;
2020/08/04 02:29:41;;;;;;;32.64999;28.9;;;;;;;13.33;100;94582.03;;;;
2020/08/04 02:30:45;;;;;;;32.64999;28.9;;;;;;;13.33;100;94582.03;;;;
2020/08/04 02:31:51;;;;;;;32.64999;28.9;;;;;;;13.33;100;94582.03;;;;
2020/08/04 02:32:57;;;;;;;32.64999;28.9;;;;;;;13.33;100;94582.03;;;;
2020/08/04 02:33:57;;;;;;;32.64999;28.9;;;;;;;13.33;100;94582.03;;;;
2020/08/04 02:35:00;;;;;;;32.64999;28.9;;;;;;;13.33;100;94582.03;;;;
2020/08/04 02:36:05;;;;;;;32.64999;28.9;;;;;;;13.33;100;94582.03;;;;
2020/08/04 02:37:11;;;;;;;32.64999;28.9;;;;;;;13.33;100;94582.03;;;;
2020/08/04 02:38:16;;;;;;;32.64999;28.9;;;;;;;13.33;100;94582.03;;;;
2020/08/04 02:39:22;;;;;;;32.64999;28.9;;;;;;;13.33;100;94582.03;;;;
2020/08/04 02:40:31;;;;;;;32.64999;28.9;;;;;;;13.33;100;94582.03;;;;
2020/08/04 02:41:40;;;;;;;32.64999;28.9;;;;;;;13.33;100;94582.03;;;;
2020/08/04 02:42:45;;;;;;;32.64999;28.9;;;;;;;13.33;100;94582.03;;;;
2020/08/04 02:43:50;;;;;;;32.64999;28.9;;;;;;;13.33;100;94582.03;;;;
2020/08/04 02:44:55;;;;;;;32.64999;28.9;;;;;;;13.33;100;94582.03;;;;
2020/08/04 02:46:00;;;;;;;32.64999;28.9;;;;;;;13.33;100;94582.03;;;;
2020/08/04 02:47:07;;;;;;;32.64999;28.9;;;;;;;13.33;100;94582.03;;;;
2020/08/04 02:48:13;;;;;;;32.64999;28.9;;;;;;;13.33;100;94582.03;;;;
2020/08/04 02:49:18;;;;;;;32.64999;28.9;;;;;;;13.33;100;94582.03;;;;
2020/08/04 02:50:24;;;;;;;32.64999;28.9;;;;;;;13.33;100;94582.03;;;;
2020/08/04 02:51:30;;;;;;;33.4;30;;;;;;;13.17;100;94585.82;;;;
2020/08/04 02:52:35;;;;;;;33.4;30;;;;;;;13.17;100;94585.82;;;;
2020/08/04 02:53:40;;;;;;;33.4;30;;;;;;;13.17;100;94585.82;;;;
2020/08/04 02:54:40;;;;;;;33.4;30;;;;;;;13.17;100;94585.82;;;;
2020/08/04 02:55:45;;;;;;;33.4;30;;;;;;;13.17;100;94585.82;;;;
2020/08/04 02:56:50;;;;;;;33.4;30;;;;;;;13.17;100;94585.82;;;;
2020/08/04 02:57:51;;;;;;;33.4;30;;;;;;;13.17;100;94585.82;;;;
2020/08/04 02:58:55;;;;;;;33.4;30;;;;;;;13.17;100;94585.82;;;;
2020/08/04 03:00:00;;;;;;;33.4;30;;;;;;;13.17;100;94585.82;;;;
2020/08/04 03:01:03;;;;;;;33.4;30;;;;;;;13.17;100;94585.82;;;;
2020/08/04 03:02:07;;;;;;;33.4;30;;;;;;;13.17;100;94585.82;;;;
2020/08/04 03:03:11;;;;;;;33.4;30;;;;;;;13.17;100;94585.82;;;;
2020/08/04 03:04:15;;;;;;;33.4;30;;;;;;;13.17;100;94585.82;;;;
2020/08/04 03:05:20;;;;;;;33.4;30;;;;;;;13.17;100;94585.82;;;;
2020/08/04 03:06:21;;;;;;;33.4;30;;;;;;;13.17;100;94585.82;;;;
2020/08/04 03:07:27;;;;;;;33.4;30;;;;;;;13.17;100;94585.82;;;;
2020/08/04 03:08:32;;;;;;;33.4;30;;;;;;;13.17;100;94585.82;;;;
2020/08/04 03:09:52;;;;;;;33.4;30;;;;;;;13.17;100;94585.82;;;;
2020/08/04 03:10:57;;;;;;;33.4;30;;;;;;;13.17;100;94585.82;;;;
2020/08/04 03:12:04;;;;;;;33.4;30;;;;;;;13.17;100;94585.82;;;;
2020/08/04 03:13:10;;;;;;;27.8;25.1;;;;;;;12.99;100;94601.04;;;;
2020/08/04 03:14:16;;;;;;;27.8;25.1;;;;;;;12.99;100;94601.04;;;;
2020/08/04 03:15:18;;;;;;;27.8;25.1;;;;;;;12.99;100;94601.04;;;;
2020/08/04 03:16:24;;;;;;;27.8;25.1;;;;;;;12.99;100;94601.04;;;;
2020/08/04 03:17:31;;;;;;;27.8;25.1;;;;;;;12.99;100;94601.04;;;;
2020/08/04 03:18:37;;;;;;;27.8;25.1;;;;;;;12.99;100;94601.04;;;;
2020/08/04 03:19:42;;;;;;;27.8;25.1;;;;;;;12.99;100;94601.04;;;;
2020/08/04 03:20:43;;;;;;;27.8;25.1;;;;;;;12.99;100;94601.04;;;;
2020/08/04 03:21:44;;;;;;;27.8;25.1;;;;;;;12.99;100;94601.04;;;;
2020/08/04 03:22:50;;;;;;;27.8;25.1;;;;;;;12.99;100;94601.04;;;;
2020/08/04 03:23:52;;;;;;;27.8;25.1;;;;;;;12.99;100;94601.04;;;;
2020/08/04 03:24:53;;;;;;;27.8;25.1;;;;;;;12.99;100;94601.04;;;;
2020/08/04 03:25:57;;;;;;;27.8;25.1;;;;;;;12.99;100;94601.04;;;;
2020/08/04 03:27:02;;;;;;;27.8;25.1;;;;;;;12.99;100;94601.04;;;;
2020/08/04 03:28:09;;;;;;;27.8;25.1;;;;;;;12.99;100;94601.04;;;;
2020/08/04 03:29:16;;;;;;;27.8;25.1;;;;;;;12.99;100;94601.04;;;;
2020/08/04 03:30:19;;;;;;;27.8;25.1;;;;;;;12.99;100;94601.04;;;;
2020/08/04 03:31:25;;;;;;;27.8;25.1;;;;;;;12.99;100;94601.04;;;;
2020/08/04 03:32:29;;;;;;;27.8;25.1;;;;;;;12.99;100;94601.04;;;;
2020/08/04 03:33:37;;;;;;;27.8;25.1;;;;;;;12.99;100;94601.04;;;;
2020/08/04 03:34:47;;;;;;;27.8;25.1;;;;;;;12.99;100;94601.04;;;;
2020/08/04 03:35:51;;;;;;;27.8;25.1;;;;;;;12.99;100;94601.04;;;;
2020/08/04 03:36:55;;;;;;;27.8;25.1;;;;;;;12.99;100;94601.04;;;;
2020/08/04 03:38:03;;;;;;;27.8;25.1;;;;;;;12.99;100;94601.04;;;;
2020/08/04 03:39:08;;;;;;;27.8;25.1;;;;;;;12.99;100;94601.04;;;;
2020/08/04 03:40:13;;;;;;;27.8;25.1;;;;;;;12.99;100;94601.04;;;;
2020/08/04 03:41:23;;;;;;;27.8;25.1;;;;;;;12.99;100;94601.04;;;;
2020/08/04 03:42:29;;;;;;;27.8;25.1;;;;;;;12.99;100;94601.04;;;;
2020/08/04 03:43:34;;;;;;;27.8;25.1;;;;;;;12.99;100;94601.04;;;;
2020/08/04 03:44:39;;;;;;;27.8;25.1;;;;;;;12.99;100;94601.04;;;;
2020/08/04 03:45:48;;;;;;;27.8;25.1;;;;;;;12.99;100;94601.04;;;;
2020/08/04 03:46:55;;;;;;;27.8;25.1;;;;;;;12.99;100;94601.04;;;;
2020/08/04 03:48:00;;;;;;;27.8;25.1;;;;;;;12.99;100;94601.04;;;;
2020/08/04 03:49:05;;;;;;;27.8;25.1;;;;;;;12.99;100;94601.04;;;;
2020/08/04 03:50:11;;;;;;;27.8;25.1;;;;;;;12.99;100;94601.04;;;;
2020/08/04 03:51:17;;;;;;;27.8;25.1;;;;;;;12.99;100;94601.04;;;;
2020/08/04 03:52:24;;;;;;;27.8;25.1;;;;;;;12.99;100;94601.04;;;;
2020/08/04 03:53:30;;;;;;;27.8;25.1;;;;;;;12.99;100;94601.04;;;;
2020/08/04 03:54:43;;;;;;;27.8;25.1;;;;;;;12.99;100;94601.04;;;;
2020/08/04 03:55:48;;;;;;;27.8;25.1;;;;;;;12.99;100;94601.04;;;;
2020/08/04 03:56:48;;;;;;;27.8;25.1;;;;;;;12.99;100;94601.04;;;;
2020/08/04 04:06:56;;;;;;;26.9;24;;;;;;;12.99;100;94672.44;;;;
2020/08/04 04:08:01;;;;;;;26.9;24;;;;;;;12.99;100;94672.44;;;;
2020/08/04 04:09:11;;;;;;;26.9;24;;;;;;;12.99;100;94672.44;;;;
2020/08/04 04:10:26;;;;;;;26.9;24;;;;;;;12.99;100;94672.44;;;;
2020/08/04 04:11:36;;;;;;;26.9;24;;;;;;;12.99;100;94672.44;;;;
2020/08/04 04:12:43;;;;;;;26.9;24;;;;;;;12.99;100;94672.44;;;;
2020/08/04 04:13:51;;;;;;;26.9;24;;;;;;;12.99;100;94672.44;;;;
2020/08/04 04:14:59;;;;;;;26.9;24;;;;;;;12.99;100;94672.44;;;;
2020/08/04 04:16:08;;;;;;;26.9;24;;;;;;;12.99;100;94672.44;;;;
2020/08/04 04:17:15;;;;;;;26.9;24;;;;;;;12.99;100;94672.44;;;;
2020/08/04 04:18:20;;;;;;;27.3;24.15;;;;;;;12.9;100;94693;;;;
2020/08/04 04:19:37;;;;;;;27.3;24.15;;;;;;;12.9;100;94693;;;;
2020/08/04 04:20:45;;;;;;;27.3;24.15;;;;;;;12.9;100;94693;;;;
2020/08/04 04:21:58;;;;;;;27.3;24.15;;;;;;;12.9;100;94693;;;;
2020/08/04 04:23:16;;;;;;;27.3;24.15;;;;;;;12.9;100;94693;;;;
2020/08/04 04:24:22;;;;;;;27.3;24.15;;;;;;;12.9;100;94693;;;;
2020/08/04 04:25:30;;;;;;;27.3;24.15;;;;;;;12.9;100;94693;;;;
2020/08/04 04:26:34;;;;;;;27.3;24.15;;;;;;;12.9;100;94693;;;;
2020/08/04 04:27:50;;;;;;;27.3;24.15;;;;;;;12.9;100;94693;;;;
2020/08/04 04:29:04;;;;;;;27.3;24.15;;;;;;;12.9;100;94693;;;;
2020/08/04 04:30:21;;;;;;;27.3;24.15;;;;;;;12.9;100;94693;;;;
2020/08/04 04:31:29;;;;;;;27.3;24.15;;;;;;;12.9;100;94693;;;;
2020/08/04 04:32:36;;;;;;;27.3;24.15;;;;;;;12.9;100;94693;;;;
2020/08/04 04:33:59;;;;;;;27.3;24.15;;;;;;;12.9;100;94693;;;;
2020/08/04 04:35:11;;;;;;;27.3;24.15;;;;;;;12.9;100;94693;;;;
2020/08/04 04:36:34;;;;;;;27.3;24.15;;;;;;;12.9;100;94693;;;;
2020/08/04 04:37:53;;;;;;;27.3;24.15;;;;;;;12.9;100;94693;;;;
2020/08/04 04:38:55;;;;;;;27.3;24.15;;;;;;;12.9;100;94693;;;;
2020/08/04 04:40:04;;;;;;;27.3;24.15;;;;;;;12.9;100;94693;;;;
2020/08/04 04:41:15;;;;;;;27.3;24.15;;;;;;;12.9;100;94693;;;;
2020/08/04 04:42:27;;;;;;;27.3;24.15;;;;;;;12.9;100;94693;;;;
2020/08/04 04:43:37;;;;;;;27.3;24.15;;;;;;;12.9;100;94693;;;;
2020/08/04 04:44:42;;;;;;;27.3;24.15;;;;;;;12.9;100;94693;;;;
2020/08/04 04:45:51;;;;;;;27.3;24.15;;;;;;;12.9;100;94693;;;;
2020/08/04 04:46:57;;;;;;;27.3;24.15;;;;;;;12.9;100;94693;;;;
2020/08/04 04:48:05;;;;;;;27.3;24.15;;;;;;;12.9;100;94693;;;;
2020/08/04 04:49:19;;;;;;;27.3;24.15;;;;;;;12.9;100;94693;;;;
2020/08/04 04:50:31;;;;;;;25.65;21.90001;;;;;;;12.96;100;94716.33;;;;
2020/08/04 04:51:45;;;;;;;25.65;21.90001;;;;;;;12.96;100;94716.33;;;;
2020/08/04 04:53:00;;;;;;;25.65;21.90001;;;;;;;12.96;100;94716.33;;;;
2020/08/04 04:54:14;;;;;;;25.65;21.90001;;;;;;;12.96;100;94716.33;;;;
2020/08/04 04:55:28;;;;;;;25.65;21.90001;;;;;;;12.96;100;94716.33;;;;
2020/08/04 04:56:36;;;;;;;25.65;21.90001;;;;;;;12.96;100;94716.33;;;;
2020/08/04 04:57:43;;;;;;;25.65;21.90001;;;;;;;12.96;100;94716.33;;;;
2020/08/04 04:59:10;;;;;;;25.65;21.90001;;;;;;;12.96;100;94716.33;;;;
2020/08/04 05:00:29;;;;;;;25.3;22.55;;;;;;;12.9;100;94729.58;;;;
2020/08/04 05:01:36;;;;;;;25.3;22.55;;;;;;;12.9;100;94729.58;;;;
2020/08/04 05:03:01;;;;;;;25.3;22.55;;;;;;;12.9;100;94729.58;;;;
2020/08/04 05:04:22;;;;;;;25.3;22.55;;;;;;;12.9;100;94729.58;;;;
2020/08/04 05:05:31;;;;;;;25.3;22.55;;;;;;;12.9;100;94729.58;;;;
2020/08/04 05:06:46;;;;;;;25.3;22.55;;;;;;;12.9;100;94729.58;;;;
2020/08/04 05:08:02;;;;;;;25.3;22.55;;;;;;;12.9;100;94729.58;;;;
2020/08/04 05:09:12;;;;;;;25.3;22.55;;;;;;;12.9;100;94729.58;;;;
2020/08/04 05:10:27;;;;;;;25.3;22.55;;;;;;;12.9;100;94729.58;;;;
2020/08/04 05:11:52;;;;;;;25.3;22.55;;;;;;;12.9;100;94729.58;;;;
2020/08/04 05:13:03;;;;;;;25.3;22.55;;;;;;;12.9;100;94729.58;;;;
2020/08/04 05:14:09;;;;;;;25.3;22.55;;;;;;;12.9;100;94729.58;;;;
2020/08/04 05:15:21;;;;;;;25.3;22.55;;;;;;;12.9;100;94729.58;;;;
2020/08/04 05:16:36;;;;;;;25.3;22.55;;;;;;;12.9;100;94729.58;;;;
2020/08/04 05:17:46;;;;;;;25.3;22.55;;;;;;;12.9;100;94729.58;;;;
2020/08/04 05:18:59;;;;;;;25.3;22.55;;;;;;;12.9;100;94729.58;;;;
2020/08/04 05:20:18;;;;;;;25.3;22.55;;;;;;;12.9;100;94729.58;;;;
2020/08/04 05:21:59;;;;;;;22.5;19.4;;;;;;;13.05;100;94745.42;;;;
2020/08/04 05:23:25;;;;;;;22.5;19.4;;;;;;;13.05;100;94745.42;;;;
2020/08/04 05:24:36;;;;;;;22.5;19.4;;;;;;;13.05;100;94745.42;;;;
2020/08/04 05:26:03;;;;;;;22.5;19.4;;;;;;;13.05;100;94745.42;;;;
2020/08/04 05:27:25;;;;;;;22.5;19.4;;;;;;;13.05;100;94745.42;;;;
2020/08/04 05:28:36;;;;;;;22.5;19.4;;;;;;;13.05;100;94745.42;;;;
2020/08/04 05:30:00;;;;;;;22.5;19.4;;;;;;;13.05;100;94745.42;;;;
2020/08/04 05:31:12;;;;;;;22.5;19.4;;;;;;;13.05;100;94745.42;;;;
2020/08/04 05:32:16;;;;;;;22.5;19.4;;;;;;;13.05;100;94745.42;;;;
2020/08/04 05:33:35;;;;;;;21.9;19.6;;;;;;;13.03;100;94752.17;;;;
2020/08/04 05:35:00;;;;;;;21.9;19.6;;;;;;;13.03;100;94752.17;;;;
2020/08/04 05:36:07;;;;;;;21.9;19.6;;;;;;;13.03;100;94752.17;;;;
2020/08/04 05:37:13;;;;;;;21.9;19.6;;;;;;;13.03;100;94752.17;;;;
2020/08/04 05:38:21;;;;;;;21.9;19.6;;;;;;;13.03;100;94752.17;;;;
2020/08/04 05:39:28;;;;;;;21.9;19.6;;;;;;;13.03;100;94752.17;;;;
2020/08/04 05:40:36;;;;;;;21.9;19.6;;;;;;;13.03;100;94752.17;;;;
2020/08/04 05:41:40;;;;;;;21.9;19.6;;;;;;;13.03;100;94752.17;;;;
2020/08/04 05:42:46;;;;;;;21.9;19.6;;;;;;;13.03;100;94752.17;;;;
2020/08/04 05:43:55;;;;;;;21.9;19.6;;;;;;;13.03;100;94752.17;;;;
2020/08/04 05:45:03;;;;;;;21.9;19.6;;;;;;;13.03;100;94752.17;;;;
2020/08/04 05:46:09;;;;;;;21.9;19.6;;;;;;;13.03;100;94752.17;;;;
2020/08/04 05:47:17;;;;;;;21.9;19.6;;;;;;;13.03;100;94752.17;;;;
2020/08/04 05:48:28;;;;;;;21.9;19.6;;;;;;;13.03;100;94752.17;;;;
2020/08/04 05:49:34;;;;;;;21.9;19.6;;;;;;;13.03;100;94752.17;;;;
2020/08/04 05:50:42;;;;;;;21.9;19.6;;;;;;;13.03;100;94752.17;;;;
2020/08/04 05:51:48;;;;;;;21.9;19.6;;;;;;;13.03;100;94752.17;;;;
2020/08/04 05:52:57;;;;;;;21.9;19.6;;;;;;;13.03;100;94752.17;;;;
2020/08/04 05:54:02;;;;;;;21.9;19.6;;;;;;;13.03;100;94752.17;;;;
2020/08/04 05:55:09;;;;;;;21.9;19.6;;;;;;;13.03;100;94752.17;;;;
2020/08/04 05:56:17;;;;;;;21.9;19.6;;;;;;;13.03;100;94752.17;;;;
2020/08/04 05:57:30;;;;;;;21.9;19.6;;;;;;;13.03;100;94752.17;;;;
2020/08/04 05:58:37;;;;;;;21.9;19.6;;;;;;;13.03;100;94752.17;;;;
2020/08/04 05:59:44;;;;;;;21.9;19.6;;;;;;;13.03;100;94752.17;;;;
2020/08/04 06:00:51;;;;;;;21.9;19.6;;;;;;;13.03;100;94752.17;;;;
2020/08/04 06:02:04;;;;;;;21.9;19.6;;;;;;;13.03;100;94752.17;;;;
2020/08/04 06:03:12;;;;;;;21.9;19.6;;;;;;;13.03;100;94752.17;;;;
2020/08/04 06:04:19;;;;;;;21.9;19.6;;;;;;;13.03;100;94752.17;;;;
2020/08/04 06:05:28;;;;;;;16.9;15.05;;;;;;;13.16;100;94802.26;;;;
2020/08/04 06:06:35;;;;;;;16.9;15.05;;;;;;;13.16;100;94802.26;;;;
2020/08/04 06:07:40;;;;;;;16.9;15.05;;;;;;;13.16;100;94802.26;;;;
2020/08/04 06:08:44;;;;;;;16.9;15.05;;;;;;;13.16;100;94802.26;;;;
2020/08/04 06:09:49;;;;;;;16.9;15.05;;;;;;;13.16;100;94802.26;;;;
2020/08/04 06:10:54;;;;;;;16.9;15.05;;;;;;;13.16;100;94802.26;;;;
2020/08/04 06:12:05;;;;;;;16.9;15.05;;;;;;;13.16;100;94802.26;;;;
2020/08/04 06:13:13;;;;;;;16.9;15.05;;;;;;;13.16;100;94802.26;;;;
2020/08/04 06:14:20;;;;;;;16.9;15.05;;;;;;;13.16;100;94802.26;;;;
2020/08/04 06:15:28;;;;;;;16.9;15.05;;;;;;;13.16;100;94802.26;;;;
2020/08/04 06:16:39;;;;;;;19.6;16;;;;;;;13.13;100;94820.53;;;;
2020/08/04 06:17:48;;;;;;;19.6;16;;;;;;;13.13;100;94820.53;;;;
2020/08/04 06:18:53;;;;;;;19.6;16;;;;;;;13.13;100;94820.53;;;;
2020/08/04 06:19:57;;;;;;;19.6;16;;;;;;;13.13;100;94820.53;;;;
2020/08/04 06:21:04;;;;;;;19.6;16;;;;;;;13.13;100;94820.53;;;;
2020/08/04 06:22:09;;;;;;;19.6;16;;;;;;;13.13;100;94820.53;;;;
2020/08/04 06:23:20;;;;;;;19.6;16;;;;;;;13.13;100;94820.53;;;;
2020/08/04 06:24:26;;;;;;;19.6;16;;;;;;;13.13;100;94820.53;;;;
2020/08/04 06:25:35;;;;;;;19.6;16;;;;;;;13.13;100;94820.53;;;;
2020/08/04 06:26:46;;;;;;;19.6;16;;;;;;;13.13;100;94820.53;;;;
2020/08/04 06:27:52;;;;;;;19.6;16;;;;;;;13.13;100;94820.53;;;;
2020/08/04 06:29:03;;;;;;;19.6;16;;;;;;;13.13;100;94820.53;;;;
2020/08/04 06:30:09;;;;;;;19.6;16;;;;;;;13.13;100;94820.53;;;;
2020/08/04 06:31:17;;;;;;;19.6;16;;;;;;;13.13;100;94820.53;;;;
2020/08/04 06:32:40;;;;;;;19.6;16;;;;;;;13.13;100;94820.53;;;;
2020/08/04 06:33:46;;;;;;;19.6;16;;;;;;;13.13;100;94820.53;;;;
2020/08/04 06:34:55;;;;;;;19.6;16;;;;;;;13.13;100;94820.53;;;;
2020/08/04 06:36:05;;;;;;;19.6;16;;;;;;;13.13;100;94820.53;;;;
2020/08/04 06:37:21;;;;;;;19.6;16;;;;;;;13.13;100;94820.53;;;;
2020/08/04 06:38:32;;;;;;;19.6;16;;;;;;;13.13;100;94820.53;;;;
2020/08/04 06:39:38;;;;;;;19.6;16;;;;;;;13.13;100;94820.53;;;;
2020/08/04 06:40:44;;;;;;;19.6;16;;;;;;;13.13;100;94820.53;;;;
2020/08/04 06:41:49;;;;;;;19.6;16;;;;;;;13.13;100;94820.53;;;;
2020/08/04 06:42:57;;;;;;;19.6;16;;;;;;;13.13;100;94820.53;;;;
2020/08/04 06:44:01;;;;;;;19.6;16;;;;;;;13.13;100;94820.53;;;;
2020/08/04 06:45:07;;;;;;;19.6;16;;;;;;;13.13;100;94820.53;;;;
2020/08/04 06:46:18;;;;;;;19.6;16;;;;;;;13.13;100;94820.53;;;;
2020/08/04 06:47:29;;;;;;;19.6;16;;;;;;;13.13;100;94820.53;;;;
2020/08/04 06:48:46;;;;;;;19.6;16;;;;;;;13.13;100;94820.53;;;;
2020/08/04 06:49:55;;;;;;;19.6;16;;;;;;;13.13;100;94820.53;;;;
2020/08/04 06:51:01;;;;;;;19.6;16;;;;;;;13.13;100;94820.53;;;;
2020/08/04 06:52:17;;;;;;;19.6;16;;;;;;;13.13;100;94820.53;;;;
2020/08/04 06:53:22;;;;;;;19.6;16;;;;;;;13.13;100;94820.53;;;;
2020/08/04 06:54:30;;;;;;;19.6;16;;;;;;;13.13;100;94820.53;;;;
2020/08/04 06:55:38;;;;;;;19.6;16;;;;;;;13.13;100;94820.53;;;;
2020/08/04 06:56:43;;;;;;;19.6;16;;;;;;;13.13;100;94820.53;;;;
2020/08/04 06:57:51;;;;;;;19.6;16;;;;;;;13.13;100;94820.53;;;;
2020/08/04 06:59:04;;;;;;;15.3;12.95;;;;;;;13.28;100;94880.25;;;;
2020/08/04 07:00:17;;;;;;;15.3;12.95;;;;;;;13.28;100;94880.25;;;;
2020/08/04 07:01:28;;;;;;;15.3;12.95;;;;;;;13.28;100;94880.25;;;;
2020/08/04 07:02:33;;;;;;;15.3;12.95;;;;;;;13.28;100;94880.25;;;;
2020/08/04 07:03:41;;;;;;;15.3;12.95;;;;;;;13.28;100;94880.25;;;;
2020/08/04 07:04:52;;;;;;;15.3;12.95;;;;;;;13.28;100;94880.25;;;;
2020/08/04 07:06:01;;;;;;;15.3;12.95;;;;;;;13.28;100;94880.25;;;;